createdAt,value
2017-04-08T00:00:26.722Z,12.34
2017-04-08T00:01:37.730Z,12.36
2017-04-08T00:02:48.727Z,12.34
2017-04-08T00:03:59.785Z,12.4
2017-04-08T00:05:10.773Z,12.34
2017-04-08T00:06:21.772Z,12.36
2017-04-08T00:07:32.770Z,12.36
2017-04-08T00:08:43.768Z,12.31
2017-04-08T00:09:55.018Z,12.34
2017-04-08T00:11:06.014Z,12.25
2017-04-08T00:12:17.021Z,12.37
2017-04-08T00:13:28.024Z,12.28
2017-04-08T00:14:39.030Z,12.28
2017-04-08T00:15:50.040Z,12.28
2017-04-08T00:17:01.047Z,12.29
2017-04-08T00:18:12.060Z,12.29
2017-04-08T00:19:23.294Z,12.29
2017-04-08T00:20:34.347Z,12.33
2017-04-08T00:21:45.342Z,12.19
2017-04-08T00:22:56.339Z,12.22
2017-04-08T00:24:07.540Z,12.25
2017-04-08T00:25:18.576Z,12.22
2017-04-08T00:26:29.834Z,12.22
2017-04-08T00:27:40.839Z,12.23
2017-04-08T00:28:52.048Z,12.18
2017-04-08T00:30:03.058Z,12.2
2017-04-08T00:31:14.282Z,12.22
2017-04-08T00:32:25.340Z,12.25
2017-04-08T00:33:36.348Z,12.22
2017-04-08T00:34:47.594Z,12.19
2017-04-08T00:35:58.623Z,12.13
2017-04-08T00:37:09.612Z,12.08
2017-04-08T00:38:20.868Z,12.1
2017-04-08T00:39:31.880Z,12.08
2017-04-08T00:40:42.895Z,12.08
2017-04-08T00:41:53.890Z,12.13
2017-04-08T00:43:04.888Z,12.1
2017-04-08T00:44:16.140Z,12.08
2017-04-08T00:45:27.148Z,12.08
2017-04-08T00:46:38.149Z,12.13
2017-04-08T00:47:49.161Z,12.1
2017-04-08T00:49:00.166Z,12.11
2017-04-08T00:50:11.211Z,12.11
2017-04-08T00:51:22.224Z,12.1
2017-04-08T00:52:33.436Z,12.1
2017-04-08T00:53:44.449Z,12.11
2017-04-08T00:54:55.454Z,12.07
2017-04-08T00:56:06.503Z,12.03
2017-04-08T00:57:17.512Z,11.89
2017-04-08T00:58:28.517Z,11.89
2017-04-08T00:59:39.510Z,11.91
2017-04-08T01:00:50.508Z,11.91
2017-04-08T01:02:01.570Z,11.89
2017-04-08T01:03:12.561Z,11.97
2017-04-08T01:04:23.573Z,11.88
2017-04-08T01:05:34.579Z,11.86
2017-04-08T01:06:45.596Z,11.88
2017-04-08T01:07:57.059Z,11.95
2017-04-08T01:09:08.069Z,11.84
2017-04-08T01:10:19.070Z,11.84
2017-04-08T01:11:30.060Z,11.88
2017-04-08T01:12:41.058Z,11.84
2017-04-08T01:13:52.327Z,11.86
2017-04-08T01:15:03.342Z,11.88
2017-04-08T01:16:14.342Z,11.84
2017-04-08T01:17:25.349Z,11.86
2017-04-08T01:18:36.406Z,11.82
2017-04-08T01:19:47.651Z,11.79
2017-04-08T01:20:58.657Z,11.67
2017-04-08T01:22:09.668Z,11.68
2017-04-08T01:23:20.660Z,11.66
2017-04-08T01:24:31.660Z,11.71
2017-04-08T01:25:42.711Z,11.63
2017-04-08T01:26:53.721Z,11.67
2017-04-08T01:28:04.927Z,11.59
2017-04-08T01:29:16.122Z,11.68
2017-04-08T01:30:27.168Z,11.7
2017-04-08T01:31:38.623Z,11.66
2017-04-08T01:32:49.622Z,11.61
2017-04-08T01:34:00.619Z,11.63
2017-04-08T01:35:11.630Z,11.61
2017-04-08T01:36:22.838Z,11.56
2017-04-08T01:37:33.892Z,11.61
2017-04-08T01:38:44.900Z,11.53
2017-04-08T01:39:55.903Z,11.56
2017-04-08T01:41:06.909Z,11.61
2017-04-08T01:42:17.903Z,11.59
2017-04-08T01:43:28.967Z,11.52
2017-04-08T01:44:39.989Z,11.57
2017-04-08T01:45:51.001Z,11.67
2017-04-08T01:47:01.996Z,11.53
2017-04-08T01:48:13.200Z,11.59
2017-04-08T01:49:24.265Z,11.53
2017-04-08T01:50:35.663Z,11.6
2017-04-08T01:51:46.666Z,11.59
2017-04-08T01:52:57.687Z,11.61
2017-04-08T01:54:08.686Z,11.6
2017-04-08T01:55:19.736Z,11.59
2017-04-08T01:56:30.730Z,11.61
2017-04-08T01:57:41.938Z,11.51
2017-04-08T01:58:52.956Z,11.52
2017-04-08T02:00:03.959Z,11.49
2017-04-08T02:01:15.016Z,11.43
2017-04-08T02:02:26.015Z,11.45
2017-04-08T02:03:37.017Z,11.43
2017-04-08T02:04:48.024Z,11.42
2017-04-08T02:05:59.252Z,11.45
2017-04-08T02:07:10.320Z,11.49
2017-04-08T02:08:21.322Z,11.45
2017-04-08T02:09:32.335Z,11.43
2017-04-08T02:10:43.347Z,11.45
2017-04-08T02:11:54.354Z,11.43
2017-04-08T02:13:05.401Z,11.48
2017-04-08T02:14:16.404Z,11.34
2017-04-08T02:15:27.414Z,11.45
2017-04-08T02:16:38.421Z,11.43
2017-04-08T02:17:49.440Z,11.45
2017-04-08T02:19:00.491Z,11.41
2017-04-08T02:20:11.493Z,11.39
2017-04-08T02:21:22.483Z,11.43
2017-04-08T02:22:33.483Z,11.41
2017-04-08T02:23:44.487Z,11.45
2017-04-08T02:24:55.538Z,11.33
2017-04-08T02:26:06.537Z,11.41
2017-04-08T02:27:17.936Z,11.43
2017-04-08T02:28:28.943Z,11.43
2017-04-08T02:29:40.149Z,11.42
2017-04-08T02:30:51.354Z,11.46
2017-04-08T02:32:02.350Z,11.42
2017-04-08T02:33:13.357Z,11.45
2017-04-08T02:34:24.555Z,11.42
2017-04-08T02:35:36.015Z,11.38
2017-04-08T02:36:47.023Z,11.34
2017-04-08T02:37:58.025Z,11.39
2017-04-08T02:39:09.233Z,11.35
2017-04-08T02:40:20.425Z,11.31
2017-04-08T02:41:31.477Z,11.39
2017-04-08T02:42:42.463Z,11.35
2017-04-08T02:43:53.463Z,11.41
2017-04-08T02:45:04.460Z,11.23
2017-04-08T02:46:15.450Z,11.38
2017-04-08T02:47:26.704Z,11.35
2017-04-08T02:48:37.899Z,11.24
2017-04-08T02:49:48.902Z,11.34
2017-04-08T02:50:59.916Z,11.41
2017-04-08T02:52:10.923Z,11.28
2017-04-08T02:53:21.964Z,11.39
2017-04-08T02:54:32.960Z,11.27
2017-04-08T02:55:44.588Z,11.21
2017-04-08T02:56:55.599Z,11.27
2017-04-08T02:58:06.600Z,11.23
2017-04-08T02:59:17.860Z,11.26
2017-04-08T03:00:28.852Z,11.13
2017-04-08T03:01:39.853Z,11.12
2017-04-08T03:02:50.857Z,11.2
2017-04-08T03:04:02.062Z,11.06
2017-04-08T03:05:13.325Z,11.06
2017-04-08T03:06:24.536Z,11.03
2017-04-08T03:07:35.538Z,11.06
2017-04-08T03:08:46.543Z,11.03
2017-04-08T03:09:57.942Z,11.08
2017-04-08T03:11:08.999Z,10.98
2017-04-08T03:12:19.995Z,10.98
2017-04-08T03:13:30.991Z,11.08
2017-04-08T03:14:42.190Z,10.98
2017-04-08T03:15:53.187Z,11.02
2017-04-08T03:17:04.438Z,11.06
2017-04-08T03:18:15.437Z,11.03
2017-04-08T03:19:26.427Z,10.98
2017-04-08T03:20:37.428Z,11.05
2017-04-08T03:21:48.433Z,10.98
2017-04-08T03:22:59.679Z,10.95
2017-04-08T03:24:10.691Z,11
2017-04-08T03:25:21.894Z,11.05
2017-04-08T03:26:32.896Z,11.03
2017-04-08T03:27:44.105Z,10.98
2017-04-08T03:28:55.147Z,11
2017-04-08T03:30:06.147Z,10.91
2017-04-08T03:31:17.146Z,10.95
2017-04-08T03:32:28.143Z,10.98
2017-04-08T03:33:39.157Z,11.08
2017-04-08T03:34:50.213Z,11.05
2017-04-08T03:36:01.416Z,11.03
2017-04-08T03:37:12.421Z,11.03
2017-04-08T03:38:23.420Z,11.03
2017-04-08T03:39:34.615Z,11.06
2017-04-08T03:40:46.076Z,11.03
2017-04-08T03:41:57.089Z,10.98
2017-04-08T03:43:08.082Z,10.9
2017-04-08T03:44:19.074Z,10.85
2017-04-08T03:45:30.084Z,10.97
2017-04-08T03:46:41.148Z,10.94
2017-04-08T03:47:52.152Z,10.91
2017-04-08T03:49:03.139Z,10.87
2017-04-08T03:50:14.149Z,10.87
2017-04-08T03:51:25.163Z,10.87
2017-04-08T03:52:36.617Z,10.95
2017-04-08T03:53:47.624Z,10.9
2017-04-08T03:54:58.648Z,10.9
2017-04-08T03:56:10.082Z,10.83
2017-04-08T03:57:21.108Z,10.8
2017-04-08T03:58:32.362Z,10.84
2017-04-08T03:59:43.572Z,10.77
2017-04-08T04:00:54.785Z,10.72
2017-04-08T04:02:05.998Z,10.76
2017-04-08T04:03:17.004Z,10.67
2017-04-08T04:04:28.467Z,10.63
2017-04-08T04:05:39.458Z,10.76
2017-04-08T04:06:50.459Z,10.66
2017-04-08T04:08:01.482Z,10.7
2017-04-08T04:09:12.480Z,10.75
2017-04-08T04:10:23.728Z,10.72
2017-04-08T04:11:34.928Z,10.65
2017-04-08T04:12:45.924Z,10.67
2017-04-08T04:13:57.128Z,10.7
2017-04-08T04:15:08.122Z,10.66
2017-04-08T04:16:19.183Z,10.66
2017-04-08T04:17:30.188Z,10.61
2017-04-08T04:18:41.188Z,10.67
2017-04-08T04:19:52.200Z,10.65
2017-04-08T04:21:03.192Z,10.61
2017-04-08T04:22:14.235Z,10.61
2017-04-08T04:23:25.253Z,10.67
2017-04-08T04:24:36.266Z,10.72
2017-04-08T04:25:47.261Z,10.67
2017-04-08T04:26:58.262Z,10.67
2017-04-08T04:28:09.319Z,10.61
2017-04-08T04:29:20.322Z,10.65
2017-04-08T04:30:31.326Z,10.67
2017-04-08T04:31:42.533Z,10.65
2017-04-08T04:32:53.543Z,10.54
2017-04-08T04:34:04.795Z,10.59
2017-04-08T04:35:15.801Z,10.59
2017-04-08T04:36:26.814Z,10.63
2017-04-08T04:37:37.815Z,10.57
2017-04-08T04:38:49.015Z,10.59
2017-04-08T04:40:00.070Z,10.65
2017-04-08T04:41:11.076Z,10.63
2017-04-08T04:42:22.265Z,10.59
2017-04-08T04:43:33.272Z,10.61
2017-04-08T04:44:44.278Z,10.52
2017-04-08T04:45:55.275Z,10.61
2017-04-08T04:47:06.475Z,10.7
2017-04-08T04:48:17.480Z,10.63
2017-04-08T04:49:28.474Z,10.65
2017-04-08T04:50:39.934Z,10.57
2017-04-08T04:51:50.935Z,10.46
2017-04-08T04:53:01.938Z,10.49
2017-04-08T04:54:12.936Z,10.49
2017-04-08T04:55:23.940Z,10.39
2017-04-08T04:56:35.189Z,10.49
2017-04-08T04:57:46.399Z,10.38
2017-04-08T04:58:57.406Z,10.47
2017-04-08T05:00:08.421Z,10.39
2017-04-08T05:01:19.432Z,10.49
2017-04-08T05:02:30.679Z,10.38
2017-04-08T05:03:41.680Z,10.36
2017-04-08T05:04:52.696Z,10.41
2017-04-08T05:06:03.706Z,10.44
2017-04-08T05:07:14.920Z,10.36
2017-04-08T05:08:26.185Z,10.35
2017-04-08T05:09:37.193Z,10.36
2017-04-08T05:10:48.405Z,10.38
2017-04-08T05:11:59.409Z,10.42
2017-04-08T05:13:10.403Z,10.46
2017-04-08T05:14:21.454Z,10.39
2017-04-08T05:15:32.650Z,10.46
2017-04-08T05:16:43.852Z,10.42
2017-04-08T05:17:54.850Z,10.51
2017-04-08T05:19:06.043Z,10.47
2017-04-08T05:20:17.293Z,10.44
2017-04-08T05:21:28.300Z,10.36
2017-04-08T05:22:39.517Z,10.49
2017-04-08T05:23:50.532Z,10.47
2017-04-08T05:25:01.543Z,10.44
2017-04-08T05:26:12.604Z,10.54
2017-04-08T05:27:23.611Z,10.51
2017-04-08T05:28:34.812Z,10.51
2017-04-08T05:29:45.825Z,10.47
2017-04-08T05:30:56.828Z,10.51
2017-04-08T05:32:08.077Z,10.54
2017-04-08T05:33:19.275Z,10.52
2017-04-08T05:34:30.284Z,10.59
2017-04-08T05:35:41.285Z,10.61
2017-04-08T05:36:52.284Z,10.57
2017-04-08T05:38:03.350Z,10.61
2017-04-08T05:39:14.344Z,10.66
2017-04-08T05:40:25.346Z,10.66
2017-04-08T05:41:36.349Z,10.65
2017-04-08T05:42:47.558Z,10.69
2017-04-08T05:43:58.620Z,10.67
2017-04-08T05:45:09.620Z,10.66
2017-04-08T05:46:20.614Z,10.65
2017-04-08T05:47:31.603Z,10.7
2017-04-08T05:48:42.620Z,10.69
2017-04-08T05:49:53.682Z,10.67
2017-04-08T05:51:04.899Z,10.67
2017-04-08T05:52:15.913Z,10.7
2017-04-08T05:53:26.914Z,10.69
2017-04-08T05:54:38.321Z,10.79
2017-04-08T05:55:49.370Z,10.7
2017-04-08T05:57:00.372Z,10.7
2017-04-08T05:58:11.404Z,10.65
2017-04-08T05:59:22.403Z,10.7
2017-04-08T06:00:33.409Z,10.72
2017-04-08T06:01:44.464Z,10.7
2017-04-08T06:02:55.464Z,10.66
2017-04-08T06:04:06.459Z,10.69
2017-04-08T06:05:17.452Z,10.69
2017-04-08T06:06:28.451Z,10.73
2017-04-08T06:07:39.507Z,10.76
2017-04-08T06:08:50.715Z,10.8
2017-04-08T06:10:01.918Z,10.75
2017-04-08T06:11:12.921Z,10.8
2017-04-08T06:12:23.921Z,10.8
2017-04-08T06:13:35.177Z,10.76
2017-04-08T06:14:46.189Z,10.79
2017-04-08T06:15:57.191Z,10.8
2017-04-08T06:17:08.196Z,10.79
2017-04-08T06:18:19.202Z,10.83
2017-04-08T06:19:30.253Z,10.75
2017-04-08T06:20:41.263Z,10.79
2017-04-08T06:21:52.272Z,10.83
2017-04-08T06:23:03.673Z,10.84
2017-04-08T06:24:14.684Z,10.9
2017-04-08T06:25:25.751Z,10.84
2017-04-08T06:26:37.150Z,10.88
2017-04-08T06:27:48.166Z,10.87
2017-04-08T06:28:59.168Z,10.92
2017-04-08T06:30:10.176Z,10.91
2017-04-08T06:31:21.428Z,11
2017-04-08T06:32:32.643Z,10.98
2017-04-08T06:33:43.652Z,11
2017-04-08T06:34:54.652Z,11.09
2017-04-08T06:36:05.658Z,11.05
2017-04-08T06:37:16.710Z,11.03
2017-04-08T06:38:27.710Z,11.13
2017-04-08T06:39:38.716Z,11.13
2017-04-08T06:40:49.729Z,11.12
2017-04-08T06:42:00.746Z,11.18
2017-04-08T06:43:11.982Z,11.16
2017-04-08T06:44:23.241Z,11.23
2017-04-08T06:45:34.450Z,11.2
2017-04-08T06:46:45.463Z,11.27
2017-04-08T06:47:56.696Z,11.21
2017-04-08T06:49:07.947Z,11.12
2017-04-08T06:50:18.970Z,11.18
2017-04-08T06:51:29.977Z,11.24
2017-04-08T06:52:40.997Z,11.24
2017-04-08T06:53:52.001Z,11.38
2017-04-08T06:55:03.247Z,11.28
2017-04-08T06:56:14.257Z,11.43
2017-04-08T06:57:25.259Z,11.48
2017-04-08T06:58:36.269Z,11.46
2017-04-08T06:59:47.275Z,11.49
2017-04-08T07:00:58.480Z,11.6
2017-04-08T07:02:09.492Z,11.49
2017-04-08T07:03:20.484Z,11.59
2017-04-08T07:04:31.510Z,11.51
2017-04-08T07:05:42.770Z,11.67
2017-04-08T07:06:53.979Z,11.6
2017-04-08T07:08:04.980Z,11.68
2017-04-08T07:09:15.989Z,11.7
2017-04-08T07:10:27.006Z,11.7
2017-04-08T07:11:38.069Z,11.73
2017-04-08T07:12:49.272Z,11.82
2017-04-08T07:14:00.271Z,11.82
2017-04-08T07:15:11.281Z,11.85
2017-04-08T07:16:22.278Z,11.94
2017-04-08T07:17:33.725Z,11.94
2017-04-08T07:18:44.737Z,11.94
2017-04-08T07:19:55.743Z,11.86
2017-04-08T07:21:06.741Z,11.88
2017-04-08T07:22:17.949Z,11.88
2017-04-08T07:23:28.994Z,11.84
2017-04-08T07:24:39.985Z,11.86
2017-04-08T07:25:50.994Z,11.84
2017-04-08T07:27:02.015Z,11.85
2017-04-08T07:28:13.233Z,11.84
2017-04-08T07:29:24.488Z,11.84
2017-04-08T07:30:35.501Z,11.86
2017-04-08T07:31:46.493Z,11.94
2017-04-08T07:32:57.481Z,11.88
2017-04-08T07:34:08.501Z,11.95
2017-04-08T07:35:19.565Z,11.95
2017-04-08T07:36:30.586Z,12.01
2017-04-08T07:37:41.787Z,12.08
2017-04-08T07:38:52.982Z,12.11
2017-04-08T07:40:03.987Z,12.1
2017-04-08T07:41:15.037Z,12.2
2017-04-08T07:42:26.049Z,12.28
2017-04-08T07:43:37.058Z,12.31
2017-04-08T07:44:48.054Z,12.33
2017-04-08T07:45:59.060Z,12.36
2017-04-08T07:47:10.121Z,12.43
2017-04-08T07:48:21.119Z,12.58
2017-04-08T07:49:32.120Z,12.56
2017-04-08T07:50:43.323Z,12.55
2017-04-08T07:51:54.321Z,12.74
2017-04-08T07:53:05.406Z,12.78
2017-04-08T07:54:16.417Z,12.86
2017-04-08T07:55:27.418Z,12.84
2017-04-08T07:56:38.432Z,12.83
2017-04-08T07:57:49.441Z,12.86
2017-04-08T07:59:00.700Z,12.81
2017-04-08T08:00:11.711Z,12.89
2017-04-08T08:01:22.915Z,12.91
2017-04-08T08:02:33.927Z,12.91
2017-04-08T08:03:45.137Z,12.83
2017-04-08T08:04:56.394Z,12.96
2017-04-08T08:06:07.396Z,12.89
2017-04-08T08:07:18.607Z,12.96
2017-04-08T08:08:29.813Z,12.92
2017-04-08T08:09:40.826Z,13.02
2017-04-08T08:10:52.079Z,13.13
2017-04-08T08:12:03.096Z,13.16
2017-04-08T08:13:14.108Z,13.32
2017-04-08T08:14:25.314Z,13.32
2017-04-08T08:15:36.310Z,13.44
2017-04-08T08:16:47.368Z,13.39
2017-04-08T08:17:58.380Z,13.44
2017-04-08T08:19:09.581Z,13.51
2017-04-08T08:20:20.567Z,13.47
2017-04-08T08:21:31.573Z,13.57
2017-04-08T08:22:42.626Z,13.66
2017-04-08T08:23:53.617Z,13.72
2017-04-08T08:25:04.846Z,13.76
2017-04-08T08:26:15.852Z,13.66
2017-04-08T08:27:26.896Z,13.58
2017-04-08T08:28:38.162Z,13.42
2017-04-08T08:29:49.168Z,13.48
2017-04-08T08:31:00.182Z,13.57
2017-04-08T08:32:11.188Z,13.68
2017-04-08T08:33:22.184Z,13.79
2017-04-08T08:34:33.237Z,13.78
2017-04-08T08:35:44.235Z,13.86
2017-04-08T08:36:55.230Z,14.09
2017-04-08T08:38:06.232Z,14.11
2017-04-08T08:39:17.251Z,14.12
2017-04-08T08:40:28.504Z,14.16
2017-04-08T08:41:39.506Z,14.23
2017-04-08T08:42:50.533Z,14.21
2017-04-08T08:44:01.967Z,14.15
2017-04-08T08:45:12.981Z,14.13
2017-04-08T08:46:24.033Z,14.15
2017-04-08T08:47:35.041Z,14.26
2017-04-08T08:48:46.064Z,14.33
2017-04-08T08:49:57.076Z,14.41
2017-04-08T08:51:08.084Z,14.36
2017-04-08T08:52:19.343Z,14.41
2017-04-08T08:53:30.360Z,14.59
2017-04-08T08:54:41.373Z,14.57
2017-04-08T08:55:52.789Z,14.49
2017-04-08T08:57:04.002Z,14.41
2017-04-08T08:58:15.278Z,14.44
2017-04-08T08:59:26.488Z,14.42
2017-04-08T09:00:37.701Z,14.44
2017-04-08T09:01:48.907Z,14.49
2017-04-08T09:02:59.921Z,14.6
2017-04-08T09:04:11.387Z,14.63
2017-04-08T09:05:22.397Z,14.74
2017-04-08T09:06:33.404Z,14.83
2017-04-08T09:07:44.414Z,14.9
2017-04-08T09:08:55.428Z,14.97
2017-04-08T09:10:06.685Z,15.13
2017-04-08T09:11:17.702Z,15.19
2017-04-08T09:12:28.712Z,15.3
2017-04-08T09:13:39.726Z,15.3
2017-04-08T09:14:50.742Z,15.22
2017-04-08T09:16:01.749Z,15.15
2017-04-08T09:17:12.954Z,15.16
2017-04-08T09:18:23.975Z,15.15
2017-04-08T09:19:34.979Z,15.23
2017-04-08T09:20:46.243Z,15.31
2017-04-08T09:21:57.258Z,15.43
2017-04-08T09:23:08.278Z,15.51
2017-04-08T09:24:19.277Z,15.52
2017-04-08T09:25:30.282Z,15.59
2017-04-08T09:26:41.546Z,15.71
2017-04-08T09:27:52.750Z,15.84
2017-04-08T09:29:03.975Z,15.83
2017-04-08T09:30:14.990Z,15.71
2017-04-08T09:31:26.016Z,15.68
2017-04-08T09:32:37.074Z,15.63
2017-04-08T09:33:48.090Z,15.71
2017-04-08T09:34:59.116Z,15.62
2017-04-08T09:36:10.136Z,15.43
2017-04-08T09:37:21.139Z,15.6
2017-04-08T09:38:32.394Z,15.56
2017-04-08T09:39:43.603Z,15.63
2017-04-08T09:40:54.619Z,15.83
2017-04-08T09:42:05.644Z,15.8
2017-04-08T09:43:16.660Z,15.93
2017-04-08T09:44:27.725Z,15.95
2017-04-08T09:45:38.744Z,15.92
2017-04-08T09:46:49.773Z,16.13
2017-04-08T09:48:00.780Z,16.06
2017-04-08T09:49:11.794Z,15.92
2017-04-08T09:50:23.117Z,15.86
2017-04-08T09:51:34.120Z,15.71
2017-04-08T09:52:45.129Z,15.67
2017-04-08T09:53:56.144Z,15.63
2017-04-08T09:55:07.151Z,15.75
2017-04-08T09:56:18.643Z,15.88
2017-04-08T09:57:29.664Z,15.91
2017-04-08T09:58:40.677Z,15.86
2017-04-08T09:59:51.891Z,15.92
2017-04-08T10:01:02.894Z,15.99
2017-04-08T10:02:13.949Z,15.84
2017-04-08T10:03:24.959Z,15.88
2017-04-08T10:04:35.979Z,15.86
2017-04-08T10:05:46.990Z,15.8
2017-04-08T10:06:57.997Z,15.86
2017-04-08T10:08:09.246Z,15.81
2017-04-08T10:09:20.249Z,15.78
2017-04-08T10:10:31.265Z,15.83
2017-04-08T10:11:42.276Z,15.89
2017-04-08T10:12:53.274Z,15.92
2017-04-08T10:14:04.333Z,15.89
2017-04-08T10:15:15.594Z,15.88
2017-04-08T10:16:26.597Z,15.83
2017-04-08T10:17:37.600Z,15.67
2017-04-08T10:18:48.799Z,15.58
2017-04-08T10:19:59.869Z,15.6
2017-04-08T10:21:11.085Z,15.67
2017-04-08T10:22:22.100Z,15.68
2017-04-08T10:23:33.128Z,15.84
2017-04-08T10:24:44.554Z,15.92
2017-04-08T10:25:56.025Z,15.88
2017-04-08T10:27:07.046Z,15.84
2017-04-08T10:28:18.061Z,15.67
2017-04-08T10:29:29.498Z,15.63
2017-04-08T10:30:40.509Z,15.6
2017-04-08T10:31:51.765Z,15.67
2017-04-08T10:33:02.767Z,15.75
2017-04-08T10:34:13.974Z,15.67
2017-04-08T10:35:25.373Z,15.73
2017-04-08T10:36:36.375Z,15.65
2017-04-08T10:37:47.841Z,15.67
2017-04-08T10:38:59.053Z,15.8
2017-04-08T10:40:10.073Z,15.73
2017-04-08T10:41:21.089Z,15.73
2017-04-08T10:42:32.087Z,15.75
2017-04-08T10:43:43.159Z,15.84
2017-04-08T10:44:54.173Z,15.93
2017-04-08T10:46:05.182Z,15.99
2017-04-08T10:47:16.395Z,16.07
2017-04-08T10:48:27.407Z,16.25
2017-04-08T10:49:38.869Z,16.37
2017-04-08T10:50:49.886Z,16.52
2017-04-08T10:52:00.887Z,16.63
2017-04-08T10:53:11.906Z,16.62
2017-04-08T10:54:22.912Z,16.72
2017-04-08T10:55:33.968Z,16.8
2017-04-08T10:56:44.992Z,16.82
2017-04-08T10:57:55.997Z,16.82
2017-04-08T10:59:07.026Z,16.73
2017-04-08T11:00:18.048Z,16.7
2017-04-08T11:01:29.106Z,16.72
2017-04-08T11:02:40.121Z,16.72
2017-04-08T11:03:51.339Z,16.73
2017-04-08T11:05:02.358Z,16.8
2017-04-08T11:06:13.570Z,16.94
2017-04-08T11:07:25.236Z,16.97
2017-04-08T11:08:36.250Z,17.02
2017-04-08T11:09:47.273Z,17.05
2017-04-08T11:10:58.289Z,17.05
2017-04-08T11:12:09.310Z,17.06
2017-04-08T11:13:20.378Z,17.03
2017-04-08T11:14:31.395Z,17.03
2017-04-08T11:15:42.397Z,17.09
2017-04-08T11:16:53.416Z,17.1
2017-04-08T11:18:04.626Z,17.28
2017-04-08T11:19:16.094Z,17.4
2017-04-08T11:20:27.317Z,17.49
2017-04-08T11:21:38.322Z,17.52
2017-04-08T11:22:49.335Z,17.47
2017-04-08T11:24:00.360Z,17.24
2017-04-08T11:25:11.438Z,17.25
2017-04-08T11:26:22.446Z,17.21
2017-04-08T11:27:33.471Z,17.3
2017-04-08T11:28:44.496Z,17.47
2017-04-08T11:29:55.509Z,17.47
2017-04-08T11:31:06.776Z,17.55
2017-04-08T11:32:17.793Z,17.52
2017-04-08T11:33:29.017Z,17.35
2017-04-08T11:34:40.033Z,17.27
2017-04-08T11:35:51.058Z,17.1
2017-04-08T11:37:02.328Z,17.13
2017-04-08T11:38:13.335Z,16.99
2017-04-08T11:39:24.365Z,16.94
2017-04-08T11:40:35.398Z,16.91
2017-04-08T11:41:46.403Z,16.92
2017-04-08T11:42:57.468Z,16.91
2017-04-08T11:44:08.483Z,16.99
2017-04-08T11:45:19.493Z,16.91
2017-04-08T11:46:30.492Z,16.84
2017-04-08T11:47:41.498Z,16.91
2017-04-08T11:48:52.749Z,16.95
2017-04-08T11:50:03.760Z,17.05
2017-04-08T11:51:14.983Z,17
2017-04-08T11:52:26.006Z,17.07
2017-04-08T11:53:37.212Z,17.13
2017-04-08T11:54:48.270Z,17.13
2017-04-08T11:55:59.291Z,17.18
2017-04-08T11:57:10.306Z,17.35
2017-04-08T11:58:21.313Z,17.35
2017-04-08T11:59:32.317Z,17.15
2017-04-08T12:00:43.323Z,17.07
2017-04-08T12:01:54.533Z,17.07
2017-04-08T12:03:05.554Z,16.99
2017-04-08T12:04:16.562Z,17.1
2017-04-08T12:05:27.820Z,17.21
2017-04-08T12:06:39.037Z,17.45
2017-04-08T12:07:50.048Z,17.63
2017-04-08T12:09:01.274Z,17.87
2017-04-08T12:10:12.492Z,17.94
2017-04-08T12:11:23.551Z,18.13
2017-04-08T12:12:34.567Z,18.19
2017-04-08T12:13:45.573Z,18.23
2017-04-08T12:14:56.789Z,18.1
2017-04-08T12:16:08.007Z,18.03
2017-04-08T12:17:19.274Z,17.83
2017-04-08T12:18:30.288Z,17.76
2017-04-08T12:19:41.308Z,17.74
2017-04-08T12:20:52.519Z,17.47
2017-04-08T12:22:03.535Z,17.38
2017-04-08T12:23:14.799Z,17.46
2017-04-08T12:24:26.011Z,17.36
2017-04-08T12:25:37.033Z,17.42
2017-04-08T12:26:48.054Z,17.36
2017-04-08T12:27:59.063Z,17.39
2017-04-08T12:29:10.124Z,17.47
2017-04-08T12:30:21.135Z,17.42
2017-04-08T12:31:32.351Z,17.46
2017-04-08T12:32:43.361Z,17.38
2017-04-08T12:33:54.390Z,17.22
2017-04-08T12:35:05.867Z,17.24
2017-04-08T12:36:17.081Z,17.12
2017-04-08T12:37:28.094Z,17.2
2017-04-08T12:38:39.101Z,17.2
2017-04-08T12:39:50.117Z,17.3
2017-04-08T12:41:01.182Z,17.4
2017-04-08T12:42:12.210Z,17.58
2017-04-08T12:43:23.216Z,17.58
2017-04-08T12:44:34.428Z,17.68
2017-04-08T12:45:45.443Z,17.95
2017-04-08T12:46:56.912Z,17.88
2017-04-08T12:48:07.940Z,18.01
2017-04-08T12:49:18.959Z,18.02
2017-04-08T12:50:29.968Z,18.03
2017-04-08T12:51:40.979Z,18.06
2017-04-08T12:52:52.031Z,18.05
2017-04-08T12:54:03.055Z,18.13
2017-04-08T12:55:14.073Z,18.21
2017-04-08T12:56:25.101Z,18.2
2017-04-08T12:57:36.100Z,18.21
2017-04-08T12:58:47.369Z,18.32
2017-04-08T12:59:58.394Z,18.19
2017-04-08T13:01:09.408Z,18.31
2017-04-08T13:02:20.631Z,18.16
2017-04-08T13:03:31.642Z,18.16
2017-04-08T13:04:42.914Z,18.16
2017-04-08T13:05:53.924Z,18.16
2017-04-08T13:07:04.939Z,18.11
2017-04-08T13:08:15.958Z,17.9
2017-04-08T13:09:27.181Z,17.83
2017-04-08T13:10:38.440Z,17.68
2017-04-08T13:11:49.456Z,17.71
2017-04-08T13:13:00.464Z,17.68
2017-04-08T13:14:11.473Z,17.71
2017-04-08T13:15:22.694Z,17.71
2017-04-08T13:16:33.761Z,17.71
2017-04-08T13:17:45.404Z,17.71
2017-04-08T13:18:56.430Z,17.83
2017-04-08T13:20:07.450Z,17.81
2017-04-08T13:21:18.661Z,17.94
2017-04-08T13:22:29.928Z,17.92
2017-04-08T13:23:41.142Z,17.83
2017-04-08T13:24:52.154Z,17.74
2017-04-08T13:26:03.177Z,17.68
2017-04-08T13:27:14.177Z,17.86
2017-04-08T13:28:25.254Z,17.84
2017-04-08T13:29:36.278Z,17.88
2017-04-08T13:30:47.296Z,17.73
2017-04-08T13:31:58.507Z,17.63
2017-04-08T13:33:09.522Z,17.55
2017-04-08T13:34:20.579Z,17.5
2017-04-08T13:35:31.584Z,17.6
2017-04-08T13:36:42.586Z,17.57
2017-04-08T13:37:53.789Z,17.76
2017-04-08T13:39:04.810Z,17.54
2017-04-08T13:40:15.888Z,17.55
2017-04-08T13:41:26.896Z,17.54
2017-04-08T13:42:37.911Z,17.6
2017-04-08T13:43:49.121Z,17.57
2017-04-08T13:45:00.137Z,17.65
2017-04-08T13:46:11.406Z,17.74
2017-04-08T13:47:22.621Z,17.68
2017-04-08T13:48:33.636Z,17.8
2017-04-08T13:49:44.642Z,17.68
2017-04-08T13:50:55.656Z,17.79
2017-04-08T13:52:06.720Z,17.94
2017-04-08T13:53:17.735Z,17.98
2017-04-08T13:54:28.757Z,18.06
2017-04-08T13:55:39.983Z,18.13
2017-04-08T13:56:50.992Z,18.1
2017-04-08T13:58:02.458Z,18.17
2017-04-08T13:59:13.476Z,18.24
2017-04-08T14:00:24.487Z,18.27
2017-04-08T14:01:35.493Z,18.23
2017-04-08T14:02:46.714Z,18.14
2017-04-08T14:03:57.780Z,18.17
2017-04-08T14:05:08.990Z,18.16
2017-04-08T14:06:20.210Z,18.11
2017-04-08T14:07:31.426Z,18.11
2017-04-08T14:08:42.453Z,18.11
2017-04-08T14:09:53.720Z,17.99
2017-04-08T14:11:04.724Z,17.88
2017-04-08T14:12:16.334Z,17.96
2017-04-08T14:13:27.326Z,17.98
2017-04-08T14:14:38.343Z,17.98
2017-04-08T14:15:49.375Z,17.94
2017-04-08T14:17:00.399Z,17.86
2017-04-08T14:18:11.647Z,17.84
2017-04-08T14:19:22.668Z,17.9
2017-04-08T14:20:34.146Z,17.9
2017-04-08T14:21:45.156Z,17.71
2017-04-08T14:22:56.172Z,17.83
2017-04-08T14:24:07.185Z,17.83
2017-04-08T14:25:18.192Z,17.81
2017-04-08T14:26:29.409Z,17.68
2017-04-08T14:27:40.422Z,17.69
2017-04-08T14:28:51.434Z,17.79
2017-04-08T14:30:02.441Z,17.87
2017-04-08T14:31:13.452Z,17.73
2017-04-08T14:32:24.914Z,17.68
2017-04-08T14:33:35.930Z,17.73
2017-04-08T14:34:46.947Z,17.74
2017-04-08T14:35:57.962Z,17.86
2017-04-08T14:37:08.983Z,17.69
2017-04-08T14:38:20.251Z,17.66
2017-04-08T14:39:31.262Z,17.8
2017-04-08T14:40:42.267Z,17.8
2017-04-08T14:41:53.282Z,17.83
2017-04-08T14:43:04.301Z,17.88
2017-04-08T14:44:15.366Z,17.87
2017-04-08T14:45:26.390Z,17.8
2017-04-08T14:46:37.409Z,17.69
2017-04-08T14:47:48.420Z,17.79
2017-04-08T14:48:59.631Z,17.66
2017-04-08T14:50:10.701Z,17.71
2017-04-08T14:51:21.713Z,17.76
2017-04-08T14:52:32.920Z,17.71
2017-04-08T14:53:44.163Z,17.66
2017-04-08T14:54:55.167Z,17.74
2017-04-08T14:56:06.411Z,17.68
2017-04-08T14:57:17.632Z,17.69
2017-04-08T14:58:28.841Z,17.68
2017-04-08T14:59:40.058Z,17.65
2017-04-08T15:00:51.253Z,17.69
2017-04-08T15:02:02.328Z,17.65
2017-04-08T15:03:13.544Z,17.68
2017-04-08T15:04:24.561Z,17.6
2017-04-08T15:05:35.585Z,17.54
2017-04-08T15:06:46.605Z,17.49
2017-04-08T15:07:57.869Z,17.22
2017-04-08T15:09:09.081Z,17.17
2017-04-08T15:10:20.097Z,17.05
2017-04-08T15:11:31.108Z,17.17
2017-04-08T15:12:42.112Z,17.15
2017-04-08T15:13:53.169Z,17.18
2017-04-08T15:15:04.372Z,17.07
2017-04-08T15:16:15.390Z,17.15
2017-04-08T15:17:26.403Z,17.09
2017-04-08T15:18:37.421Z,17.2